Cripple Creek, VA (24322)

11:18 PM EST on February 26, 2015 (GMT -0500)
APRSWXNET Elk Creek VA US | Change Station
CLOSE
Current Station
Personal Weather Station
Location: Elk Creek, VA
Elevation: 2805 ft
Nearby Weather Stations
Active Advisory: Special Statement Active Notice: Local Storm Report

Elev 2805 ft 36.74 °N, 81.19 °W | Updated 45 minutes ago

Partly Cloudy
Partly Cloudy
26 °F
Feels Like 26 °F
N
0
Wind Variable Wind from NNW
Gusts 0.0 mph

Today
High -- | Low -- °F
--% Chance of Precip.
Yesterday
High -- | Low -- °F
Precip. -- in
6:59 AM 6:15 PM
Waxing Gibbous, 65% visible
Pressure 30.09 in
Visibility 10.0 miles
Clouds Scattered Clouds 2900 ft
Overcast 3800 ft
Windchill 26 °F
Dew Point 22 °F
Humidity 86%
Rainfall -999.00 in
Snow Depth Not available.
UV 0 out of 12
Pollen .60 out of 12
Air Quality Not available.
Flu Activity Not available.
METAR KMKJ 270355Z AUTO 23003KT 10SM SCT029 OVC038 M02/M04 A3009 RMK AO2 T10181040

More Conditions Fewer Conditions

Pressure 30.09 in
Visibility 10.0 miles
Clouds Scattered Clouds 2900 ft
Overcast 3800 ft
Windchill 26 °F
Dew Point 22 °F
Humidity 86%
Rainfall -999.00 in
Snow Depth Not available.
UV 0 out of 12
Pollen .60 out of 12
Air Quality Not available.
Flu Activity Not available.
METAR KMKJ 270355Z AUTO 23003KT 10SM SCT029 OVC038 M02/M04 A3009 RMK AO2 T10181040

More Conditions Fewer Conditions

10-Day Weather Forecast

Almanac

Astronomy

Feb. 26, 2015 Rise Set
Actual Time
Civil Twilight
Nautical Twilight
Astronomical Twilight
Moon
Length of Visible Light
Length of Day
Tomorrow will be .
, % of the Moon is Illuminated

Today's Extremes

State Highs State Lows

Community

WunderPhotos

Upload Photos

1,800,620 photos uploaded!

WunderBlogs® & News

Nearby

Air Quality

  Air Quality AQ Index Pollutant
Not available.

Snow Depth

Station Depth Elevation

Earthquake Activity

City Distance Mag. Time & Date
Minimum magnitude displayed is 2.5.

Coastal Water Temperatures

Place Temperature

Nearby Weather Stations

Special Statement
Statement as of 9:44 PM EST on February 26, 2015


... Black ice expected tonight...

Expect black ice along roads... sidewalks and parking lots
overnight... as temperatures drop into the teens and 20s.. caution
should be exercised while driving or walking as a wet looking
surface will more likely be icy.